Terminal Aerodrome Forecast
Issued by NWS

Current Version | Previous Version | Text Only | Print | Product List | Glossary On
Versions: 1 2 3 4 5 6 7 8 9 10 11 12 13 14 15 16 17 18
000
FTUS44 KBMX 271124
TAFMGM
TAF
KMGM 271124Z 2712/2812 03008KT P6SM BKN250
     FM271800 04006KT P6SM SCT250
     FM280300 06004KT P6SM OVC100
     FM280900 05008KT P6SM -RA OVC025=

USA.gov is the U.S. government's official web portal to all federal, state and local government web resources and services.